sensor_id;sensor_type;location;lat;lon;timestamp;P1;P2;P0
54869;PMS5003;40756;-37.950;145.008;2022-10-22T00:01:20;3;3;
54869;PMS5003;40756;-37.950;145.008;2022-10-22T00:03:50;3;2;
54869;PMS5003;40756;-37.950;145.008;2022-10-22T00:06:19;3;2;
54869;PMS5003;40756;-37.950;145.008;2022-10-22T00:08:49;5;5;
54869;PMS5003;40756;-37.950;145.008;2022-10-22T00:11:19;3;3;
54869;PMS5003;40756;-37.950;145.008;2022-10-22T00:13:49;4;4;
54869;PMS5003;40756;-37.950;145.008;2022-10-22T00:16:19;6;4;
54869;PMS5003;40756;-37.950;145.008;2022-10-22T00:18:49;4;3;
54869;PMS5003;40756;-37.950;145.008;2022-10-22T00:21:20;4;4;
54869;PMS5003;40756;-37.950;145.008;2022-10-22T00:23:49;3;3;
54869;PMS5003;40756;-37.950;145.008;2022-10-22T00:26:19;5;4;
54869;PMS5003;40756;-37.950;145.008;2022-10-22T00:28:48;6;6;
54869;PMS5003;40756;-37.950;145.008;2022-10-22T00:31:18;4;4;
54869;PMS5003;40756;-37.950;145.008;2022-10-22T00:33:48;3;3;
54869;PMS5003;40756;-37.950;145.008;2022-10-22T00:36:17;3;3;
54869;PMS5003;40756;-37.950;145.008;2022-10-22T00:38:47;6;5;
54869;PMS5003;40756;-37.950;145.008;2022-10-22T00:41:18;2;2;
54869;PMS5003;40756;-37.950;145.008;2022-10-22T00:43:56;6;6;
54869;PMS5003;40756;-37.950;145.008;2022-10-22T00:46:27;6;5;
54869;PMS5003;40756;-37.950;145.008;2022-10-22T00:48:58;3;3;
54869;PMS5003;40756;-37.950;145.008;2022-10-22T00:51:30;9;8;
54869;PMS5003;40756;-37.950;145.008;2022-10-22T00:54:02;7;7;
54869;PMS5003;40756;-37.950;145.008;2022-10-22T00:56:35;6;6;
54869;PMS5003;40756;-37.950;145.008;2022-10-22T00:59:05;5;5;
54869;PMS5003;40756;-37.950;145.008;2022-10-22T01:01:34;8;6;
54869;PMS5003;40756;-37.950;145.008;2022-10-22T01:04:04;6;6;
54869;PMS5003;40756;-37.950;145.008;2022-10-22T01:06:34;5;5;
54869;PMS5003;40756;-37.950;145.008;2022-10-22T01:09:06;11;9;
54869;PMS5003;40756;-37.950;145.008;2022-10-22T01:11:48;7;6;
54869;PMS5003;40756;-37.950;145.008;2022-10-22T01:14:27;5;5;
54869;PMS5003;40756;-37.950;145.008;2022-10-22T01:17:03;6;5;
54869;PMS5003;40756;-37.950;145.008;2022-10-22T01:19:40;7;6;
54869;PMS5003;40756;-37.950;145.008;2022-10-22T01:22:21;4;4;
54869;PMS5003;40756;-37.950;145.008;2022-10-22T01:24:57;6;5;
54869;PMS5003;40756;-37.950;145.008;2022-10-22T01:27:37;4;4;
54869;PMS5003;40756;-37.950;145.008;2022-10-22T01:30:14;3;3;
54869;PMS5003;40756;-37.950;145.008;2022-10-22T01:32:46;3;3;
54869;PMS5003;40756;-37.950;145.008;2022-10-22T01:35:20;4;4;
54869;PMS5003;40756;-37.950;145.008;2022-10-22T01:37:54;3;3;
54869;PMS5003;40756;-37.950;145.008;2022-10-22T01:40:26;6;4;
54869;PMS5003;40756;-37.950;145.008;2022-10-22T01:42:58;4;3;
54869;PMS5003;40756;-37.950;145.008;2022-10-22T01:45:30;2;2;
54869;PMS5003;40756;-37.950;145.008;2022-10-22T01:48:05;3;3;
54869;PMS5003;40756;-37.950;145.008;2022-10-22T01:50:50;5;4;
54869;PMS5003;40756;-37.950;145.008;2022-10-22T01:53:34;6;5;
54869;PMS5003;40756;-37.950;145.008;2022-10-22T01:56:15;3;3;
54869;PMS5003;40756;-37.950;145.008;2022-10-22T01:58:57;4;4;
54869;PMS5003;40756;-37.950;145.008;2022-10-22T02:01:36;3;3;
54869;PMS5003;40756;-37.950;145.008;2022-10-22T02:04:16;6;6;
54869;PMS5003;40756;-37.950;145.008;2022-10-22T02:06:49;3;2;
54869;PMS5003;40756;-37.950;145.008;2022-10-22T02:09:22;4;3;
54869;PMS5003;40756;-37.950;145.008;2022-10-22T02:11:56;3;3;
54869;PMS5003;40756;-37.950;145.008;2022-10-22T02:14:28;2;2;
54869;PMS5003;40756;-37.950;145.008;2022-10-22T02:17:00;4;4;
54869;PMS5003;40756;-37.950;145.008;2022-10-22T02:19:33;3;3;
54869;PMS5003;40756;-37.950;145.008;2022-10-22T02:22:07;2;2;
54869;PMS5003;40756;-37.950;145.008;2022-10-22T02:24:37;2;1;
54869;PMS5003;40756;-37.950;145.008;2022-10-22T02:27:08;3;2;
54869;PMS5003;40756;-37.950;145.008;2022-10-22T02:29:46;4;4;
54869;PMS5003;40756;-37.950;145.008;2022-10-22T02:32:23;3;3;
54869;PMS5003;40756;-37.950;145.008;2022-10-22T02:35:11;7;6;
54869;PMS5003;40756;-37.950;145.008;2022-10-22T02:37:44;3;3;
54869;PMS5003;40756;-37.950;145.008;2022-10-22T02:40:16;4;4;
54869;PMS5003;40756;-37.950;145.008;2022-10-22T02:42:46;3;3;
54869;PMS5003;40756;-37.950;145.008;2022-10-22T02:45:16;2;2;
54869;PMS5003;40756;-37.950;145.008;2022-10-22T02:47:46;2;2;
54869;PMS5003;40756;-37.950;145.008;2022-10-22T02:50:16;4;3;
54869;PMS5003;40756;-37.950;145.008;2022-10-22T02:52:45;2;2;
54869;PMS5003;40756;-37.950;145.008;2022-10-22T02:55:15;0;0;
54869;PMS5003;40756;-37.950;145.008;2022-10-22T02:57:44;2;2;
54869;PMS5003;40756;-37.950;145.008;2022-10-22T03:00:14;3;3;
54869;PMS5003;40756;-37.950;145.008;2022-10-22T03:02:44;1;1;
54869;PMS5003;40756;-37.950;145.008;2022-10-22T03:05:14;3;3;
54869;PMS5003;40756;-37.950;145.008;2022-10-22T03:07:43;3;3;
54869;PMS5003;40756;-37.950;145.008;2022-10-22T03:10:12;2;2;
54869;PMS5003;40756;-37.950;145.008;2022-10-22T03:12:42;2;2;
54869;PMS5003;40756;-37.950;145.008;2022-10-22T03:15:11;2;2;
54869;PMS5003;40756;-37.950;145.008;2022-10-22T03:17:41;2;2;
54869;PMS5003;40756;-37.950;145.008;2022-10-22T03:20:10;2;2;
54869;PMS5003;40756;-37.950;145.008;2022-10-22T03:22:40;1;1;
54869;PMS5003;40756;-37.950;145.008;2022-10-22T03:25:12;0;0;
54869;PMS5003;40756;-37.950;145.008;2022-10-22T03:27:45;1;1;
54869;PMS5003;40756;-37.950;145.008;2022-10-22T03:30:15;1;1;
54869;PMS5003;40756;-37.950;145.008;2022-10-22T03:32:45;3;2;
54869;PMS5003;40756;-37.950;145.008;2022-10-22T03:35:14;3;2;
54869;PMS5003;40756;-37.950;145.008;2022-10-22T03:37:44;3;2;
54869;PMS5003;40756;-37.950;145.008;2022-10-22T03:40:13;3;2;
54869;PMS5003;40756;-37.950;145.008;2022-10-22T03:42:43;2;2;
54869;PMS5003;40756;-37.950;145.008;2022-10-22T03:45:12;3;2;
54869;PMS5003;40756;-37.950;145.008;2022-10-22T03:47:41;4;3;
54869;PMS5003;40756;-37.950;145.008;2022-10-22T03:50:11;3;3;
54869;PMS5003;40756;-37.950;145.008;2022-10-22T03:52:40;7;7;
54869;PMS5003;40756;-37.950;145.008;2022-10-22T03:55:09;7;7;
54869;PMS5003;40756;-37.950;145.008;2022-10-22T03:57:39;5;3;
54869;PMS5003;40756;-37.950;145.008;2022-10-22T04:00:09;3;3;
54869;PMS5003;40756;-37.950;145.008;2022-10-22T04:02:38;3;3;
54869;PMS5003;40756;-37.950;145.008;2022-10-22T04:05:08;4;4;
54869;PMS5003;40756;-37.950;145.008;2022-10-22T04:07:37;3;3;
54869;PMS5003;40756;-37.950;145.008;2022-10-22T04:10:07;6;6;
54869;PMS5003;40756;-37.950;145.008;2022-10-22T04:12:37;8;8;
54869;PMS5003;40756;-37.950;145.008;2022-10-22T04:15:07;7;7;
54869;PMS5003;40756;-37.950;145.008;2022-10-22T04:17:37;7;7;
54869;PMS5003;40756;-37.950;145.008;2022-10-22T04:20:07;6;5;
54869;PMS5003;40756;-37.950;145.008;2022-10-22T04:22:37;6;6;
54869;PMS5003;40756;-37.950;145.008;2022-10-22T04:25:07;9;9;
54869;PMS5003;40756;-37.950;145.008;2022-10-22T04:27:37;10;10;
54869;PMS5003;40756;-37.950;145.008;2022-10-22T04:30:07;12;12;
54869;PMS5003;40756;-37.950;145.008;2022-10-22T04:32:37;13;12;
54869;PMS5003;40756;-37.950;145.008;2022-10-22T04:35:07;9;9;
54869;PMS5003;40756;-37.950;145.008;2022-10-22T04:37:36;6;6;
54869;PMS5003;40756;-37.950;145.008;2022-10-22T04:40:06;6;6;
54869;PMS5003;40756;-37.950;145.008;2022-10-22T04:42:37;6;6;
54869;PMS5003;40756;-37.950;145.008;2022-10-22T04:45:07;8;8;
54869;PMS5003;40756;-37.950;145.008;2022-10-22T04:47:37;7;7;
54869;PMS5003;40756;-37.950;145.008;2022-10-22T04:50:07;7;7;
54869;PMS5003;40756;-37.950;145.008;2022-10-22T04:52:37;6;6;
54869;PMS5003;40756;-37.950;145.008;2022-10-22T04:55:06;5;5;
54869;PMS5003;40756;-37.950;145.008;2022-10-22T04:57:36;5;5;
54869;PMS5003;40756;-37.950;145.008;2022-10-22T05:00:06;4;4;
54869;PMS5003;40756;-37.950;145.008;2022-10-22T05:02:36;4;4;
54869;PMS5003;40756;-37.950;145.008;2022-10-22T05:05:06;4;4;
54869;PMS5003;40756;-37.950;145.008;2022-10-22T05:07:35;7;7;
54869;PMS5003;40756;-37.950;145.008;2022-10-22T05:10:05;7;6;
54869;PMS5003;40756;-37.950;145.008;2022-10-22T05:12:36;16;16;
54869;PMS5003;40756;-37.950;145.008;2022-10-22T05:15:06;11;11;
54869;PMS5003;40756;-37.950;145.008;2022-10-22T05:17:36;9;9;
54869;PMS5003;40756;-37.950;145.008;2022-10-22T05:20:06;8;8;
54869;PMS5003;40756;-37.950;145.008;2022-10-22T05:22:36;7;7;
54869;PMS5003;40756;-37.950;145.008;2022-10-22T05:25:05;6;5;
54869;PMS5003;40756;-37.950;145.008;2022-10-22T05:27:35;7;7;
54869;PMS5003;40756;-37.950;145.008;2022-10-22T05:30:06;8;6;
54869;PMS5003;40756;-37.950;145.008;2022-10-22T05:32:36;5;5;
54869;PMS5003;40756;-37.950;145.008;2022-10-22T05:35:06;6;5;
54869;PMS5003;40756;-37.950;145.008;2022-10-22T05:37:36;2;2;
54869;PMS5003;40756;-37.950;145.008;2022-10-22T05:40:06;2;2;
54869;PMS5003;40756;-37.950;145.008;2022-10-22T05:42:36;2;2;
54869;PMS5003;40756;-37.950;145.008;2022-10-22T05:45:05;2;2;
54869;PMS5003;40756;-37.950;145.008;2022-10-22T05:47:35;2;2;
54869;PMS5003;40756;-37.950;145.008;2022-10-22T05:50:05;2;2;
54869;PMS5003;40756;-37.950;145.008;2022-10-22T05:52:35;2;2;
54869;PMS5003;40756;-37.950;145.008;2022-10-22T05:55:05;2;2;
54869;PMS5003;40756;-37.950;145.008;2022-10-22T05:57:35;3;3;
54869;PMS5003;40756;-37.950;145.008;2022-10-22T06:00:06;4;3;
54869;PMS5003;40756;-37.950;145.008;2022-10-22T06:02:36;6;5;
54869;PMS5003;40756;-37.950;145.008;2022-10-22T06:05:06;3;3;
54869;PMS5003;40756;-37.950;145.008;2022-10-22T06:07:35;3;3;
54869;PMS5003;40756;-37.950;145.008;2022-10-22T06:10:07;4;4;
54869;PMS5003;40756;-37.950;145.008;2022-10-22T06:12:40;2;2;
54869;PMS5003;40756;-37.950;145.008;2022-10-22T06:15:11;4;4;
54869;PMS5003;40756;-37.950;145.008;2022-10-22T06:17:43;4;3;
54869;PMS5003;40756;-37.950;145.008;2022-10-22T06:20:13;4;4;
54869;PMS5003;40756;-37.950;145.008;2022-10-22T06:22:43;3;3;
54869;PMS5003;40756;-37.950;145.008;2022-10-22T06:25:13;5;5;
54869;PMS5003;40756;-37.950;145.008;2022-10-22T06:27:43;5;4;
54869;PMS5003;40756;-37.950;145.008;2022-10-22T06:30:16;5;5;
54869;PMS5003;40756;-37.950;145.008;2022-10-22T06:32:46;5;5;
54869;PMS5003;40756;-37.950;145.008;2022-10-22T06:35:15;4;4;
54869;PMS5003;40756;-37.950;145.008;2022-10-22T06:37:45;6;4;
54869;PMS5003;40756;-37.950;145.008;2022-10-22T06:40:14;4;4;
54869;PMS5003;40756;-37.950;145.008;2022-10-22T06:42:44;4;3;
54869;PMS5003;40756;-37.950;145.008;2022-10-22T06:45:13;5;5;
54869;PMS5003;40756;-37.950;145.008;2022-10-22T06:47:43;6;5;
54869;PMS5003;40756;-37.950;145.008;2022-10-22T06:50:12;7;6;
54869;PMS5003;40756;-37.950;145.008;2022-10-22T06:52:42;4;4;
54869;PMS5003;40756;-37.950;145.008;2022-10-22T06:55:11;3;3;
54869;PMS5003;40756;-37.950;145.008;2022-10-22T06:57:41;5;5;
54869;PMS5003;40756;-37.950;145.008;2022-10-22T07:00:11;5;5;
54869;PMS5003;40756;-37.950;145.008;2022-10-22T07:02:41;4;4;
54869;PMS5003;40756;-37.950;145.008;2022-10-22T07:05:10;6;6;
54869;PMS5003;40756;-37.950;145.008;2022-10-22T07:07:40;6;6;
54869;PMS5003;40756;-37.950;145.008;2022-10-22T07:10:09;6;6;
54869;PMS5003;40756;-37.950;145.008;2022-10-22T07:12:39;7;7;
54869;PMS5003;40756;-37.950;145.008;2022-10-22T07:15:09;8;7;
54869;PMS5003;40756;-37.950;145.008;2022-10-22T07:17:38;7;7;
54869;PMS5003;40756;-37.950;145.008;2022-10-22T07:20:08;9;9;
54869;PMS5003;40756;-37.950;145.008;2022-10-22T07:22:38;8;8;
54869;PMS5003;40756;-37.950;145.008;2022-10-22T07:25:07;8;8;
54869;PMS5003;40756;-37.950;145.008;2022-10-22T07:27:37;6;6;
54869;PMS5003;40756;-37.950;145.008;2022-10-22T07:30:07;6;6;
54869;PMS5003;40756;-37.950;145.008;2022-10-22T07:32:37;5;5;
54869;PMS5003;40756;-37.950;145.008;2022-10-22T07:35:07;7;6;
54869;PMS5003;40756;-37.950;145.008;2022-10-22T07:37:37;5;5;
54869;PMS5003;40756;-37.950;145.008;2022-10-22T07:40:08;4;4;
54869;PMS5003;40756;-37.950;145.008;2022-10-22T07:42:38;5;5;
54869;PMS5003;40756;-37.950;145.008;2022-10-22T07:45:08;5;5;
54869;PMS5003;40756;-37.950;145.008;2022-10-22T07:47:37;8;8;
54869;PMS5003;40756;-37.950;145.008;2022-10-22T07:50:07;8;8;
54869;PMS5003;40756;-37.950;145.008;2022-10-22T07:52:37;9;8;
54869;PMS5003;40756;-37.950;145.008;2022-10-22T07:55:06;9;9;
54869;PMS5003;40756;-37.950;145.008;2022-10-22T07:57:36;7;7;
54869;PMS5003;40756;-37.950;145.008;2022-10-22T08:00:07;10;9;
54869;PMS5003;40756;-37.950;145.008;2022-10-22T08:02:37;6;6;
54869;PMS5003;40756;-37.950;145.008;2022-10-22T08:05:07;7;7;
54869;PMS5003;40756;-37.950;145.008;2022-10-22T08:07:36;8;8;
54869;PMS5003;40756;-37.950;145.008;2022-10-22T08:10:06;6;6;
54869;PMS5003;40756;-37.950;145.008;2022-10-22T08:12:36;5;5;
54869;PMS5003;40756;-37.950;145.008;2022-10-22T08:15:07;5;5;
54869;PMS5003;40756;-37.950;145.008;2022-10-22T08:17:37;7;7;
54869;PMS5003;40756;-37.950;145.008;2022-10-22T08:20:07;10;9;
54869;PMS5003;40756;-37.950;145.008;2022-10-22T08:22:37;7;6;
54869;PMS5003;40756;-37.950;145.008;2022-10-22T08:25:07;8;8;
54869;PMS5003;40756;-37.950;145.008;2022-10-22T08:27:37;9;9;
54869;PMS5003;40756;-37.950;145.008;2022-10-22T08:30:08;11;10;
54869;PMS5003;40756;-37.950;145.008;2022-10-22T08:32:39;12;12;
54869;PMS5003;40756;-37.950;145.008;2022-10-22T08:35:09;14;12;
54869;PMS5003;40756;-37.950;145.008;2022-10-22T08:37:39;12;11;
54869;PMS5003;40756;-37.950;145.008;2022-10-22T08:40:09;13;13;
54869;PMS5003;40756;-37.950;145.008;2022-10-22T08:43:10;14;13;
54869;PMS5003;40756;-37.950;145.008;2022-10-22T08:46:00;12;12;
54869;PMS5003;40756;-37.950;145.008;2022-10-22T08:48:43;14;13;
54869;PMS5003;40756;-37.950;145.008;2022-10-22T08:51:16;15;15;
54869;PMS5003;40756;-37.950;145.008;2022-10-22T08:53:52;17;16;
54869;PMS5003;40756;-37.950;145.008;2022-10-22T08:56:37;13;12;
54869;PMS5003;40756;-37.950;145.008;2022-10-22T08:59:12;12;12;
54869;PMS5003;40756;-37.950;145.008;2022-10-22T09:01:47;17;17;
54869;PMS5003;40756;-37.950;145.008;2022-10-22T09:04:20;16;15;
54869;PMS5003;40756;-37.950;145.008;2022-10-22T09:06:53;10;10;
54869;PMS5003;40756;-37.950;145.008;2022-10-22T09:09:26;13;13;
54869;PMS5003;40756;-37.950;145.008;2022-10-22T09:11:58;11;11;
54869;PMS5003;40756;-37.950;145.008;2022-10-22T09:14:28;12;12;
54869;PMS5003;40756;-37.950;145.008;2022-10-22T09:17:04;11;10;
54869;PMS5003;40756;-37.950;145.008;2022-10-22T09:19:46;14;14;
54869;PMS5003;40756;-37.950;145.008;2022-10-22T09:22:30;15;14;
54869;PMS5003;40756;-37.950;145.008;2022-10-22T09:25:13;15;14;
54869;PMS5003;40756;-37.950;145.008;2022-10-22T09:27:46;13;13;
54869;PMS5003;40756;-37.950;145.008;2022-10-22T09:30:18;15;10;
54869;PMS5003;40756;-37.950;145.008;2022-10-22T09:32:50;12;12;
54869;PMS5003;40756;-37.950;145.008;2022-10-22T09:35:22;15;14;
54869;PMS5003;40756;-37.950;145.008;2022-10-22T09:37:52;12;11;
54869;PMS5003;40756;-37.950;145.008;2022-10-22T09:40:23;11;11;
54869;PMS5003;40756;-37.950;145.008;2022-10-22T09:42:52;14;14;
54869;PMS5003;40756;-37.950;145.008;2022-10-22T09:45:24;15;13;
54869;PMS5003;40756;-37.950;145.008;2022-10-22T09:48:03;13;13;
54869;PMS5003;40756;-37.950;145.008;2022-10-22T09:50:41;10;10;
54869;PMS5003;40756;-37.950;145.008;2022-10-22T09:53:13;14;11;
54869;PMS5003;40756;-37.950;145.008;2022-10-22T09:55:50;13;12;
54869;PMS5003;40756;-37.950;145.008;2022-10-22T09:58:21;14;13;
54869;PMS5003;40756;-37.950;145.008;2022-10-22T10:00:52;17;14;
54869;PMS5003;40756;-37.950;145.008;2022-10-22T10:03:25;15;15;
54869;PMS5003;40756;-37.950;145.008;2022-10-22T10:05:57;11;10;
54869;PMS5003;40756;-37.950;145.008;2022-10-22T10:08:27;17;16;
54869;PMS5003;40756;-37.950;145.008;2022-10-22T10:10:58;15;14;
54869;PMS5003;40756;-37.950;145.008;2022-10-22T10:13:40;23;20;
54869;PMS5003;40756;-37.950;145.008;2022-10-22T10:16:23;22;22;
54869;PMS5003;40756;-37.950;145.008;2022-10-22T10:19:07;17;16;
54869;PMS5003;40756;-37.950;145.008;2022-10-22T10:21:53;21;18;
54869;PMS5003;40756;-37.950;145.008;2022-10-22T10:24:45;15;15;
54869;PMS5003;40756;-37.950;145.008;2022-10-22T10:27:26;19;18;
54869;PMS5003;40756;-37.950;145.008;2022-10-22T10:30:02;16;15;
54869;PMS5003;40756;-37.950;145.008;2022-10-22T10:32:46;19;19;
54869;PMS5003;40756;-37.950;145.008;2022-10-22T10:35:30;20;20;
54869;PMS5003;40756;-37.950;145.008;2022-10-22T10:38:15;18;17;
54869;PMS5003;40756;-37.950;145.008;2022-10-22T10:40:55;17;16;
54869;PMS5003;40756;-37.950;145.008;2022-10-22T10:43:34;19;17;
54869;PMS5003;40756;-37.950;145.008;2022-10-22T10:46:13;12;12;
54869;PMS5003;40756;-37.950;145.008;2022-10-22T10:48:51;17;16;
54869;PMS5003;40756;-37.950;145.008;2022-10-22T10:51:29;14;14;
54869;PMS5003;40756;-37.950;145.008;2022-10-22T10:54:12;15;13;
54869;PMS5003;40756;-37.950;145.008;2022-10-22T10:56:54;17;15;
54869;PMS5003;40756;-37.950;145.008;2022-10-22T10:59:33;15;13;
54869;PMS5003;40756;-37.950;145.008;2022-10-22T11:06:15;19;17;
54869;PMS5003;40756;-37.950;145.008;2022-10-22T11:08:50;15;15;
54869;PMS5003;40756;-37.950;145.008;2022-10-22T11:11:25;16;16;
54869;PMS5003;40756;-37.950;145.008;2022-10-22T11:14:02;15;15;
54869;PMS5003;40756;-37.950;145.008;2022-10-22T11:16:38;14;13;
54869;PMS5003;40756;-37.950;145.008;2022-10-22T11:19:15;15;15;
54869;PMS5003;40756;-37.950;145.008;2022-10-22T11:21:52;14;13;
54869;PMS5003;40756;-37.950;145.008;2022-10-22T11:24:27;14;14;
54869;PMS5003;40756;-37.950;145.008;2022-10-22T11:27:05;12;12;
54869;PMS5003;40756;-37.950;145.008;2022-10-22T11:29:48;18;16;
54869;PMS5003;40756;-37.950;145.008;2022-10-22T11:32:23;18;16;
54869;PMS5003;40756;-37.950;145.008;2022-10-22T11:34:56;16;14;
54869;PMS5003;40756;-37.950;145.008;2022-10-22T11:37:30;16;15;
54869;PMS5003;40756;-37.950;145.008;2022-10-22T11:40:03;15;13;
54869;PMS5003;40756;-37.950;145.008;2022-10-22T11:42:39;15;14;
54869;PMS5003;40756;-37.950;145.008;2022-10-22T11:45:33;12;11;
54869;PMS5003;40756;-37.950;145.008;2022-10-22T11:48:06;14;12;
54869;PMS5003;40756;-37.950;145.008;2022-10-22T11:50:44;16;14;
54869;PMS5003;40756;-37.950;145.008;2022-10-22T11:53:17;14;14;
54869;PMS5003;40756;-37.950;145.008;2022-10-22T11:55:55;14;12;
54869;PMS5003;40756;-37.950;145.008;2022-10-22T11:58:32;12;12;
54869;PMS5003;40756;-37.950;145.008;2022-10-22T12:01:24;13;13;
54869;PMS5003;40756;-37.950;145.008;2022-10-22T12:04:39;12;11;
54869;PMS5003;40756;-37.950;145.008;2022-10-22T12:07:28;13;11;
54869;PMS5003;40756;-37.950;145.008;2022-10-22T12:10:04;12;11;
54869;PMS5003;40756;-37.950;145.008;2022-10-22T12:12:45;10;10;
54869;PMS5003;40756;-37.950;145.008;2022-10-22T12:15:23;11;11;
54869;PMS5003;40756;-37.950;145.008;2022-10-22T12:17:57;11;8;
54869;PMS5003;40756;-37.950;145.008;2022-10-22T12:20:28;10;10;
54869;PMS5003;40756;-37.950;145.008;2022-10-22T12:22:58;11;9;
54869;PMS5003;40756;-37.950;145.008;2022-10-22T12:25:29;12;10;
54869;PMS5003;40756;-37.950;145.008;2022-10-22T12:27:59;10;10;
54869;PMS5003;40756;-37.950;145.008;2022-10-22T12:30:30;11;10;
54869;PMS5003;40756;-37.950;145.008;2022-10-22T12:33:00;10;10;
54869;PMS5003;40756;-37.950;145.008;2022-10-22T12:35:33;12;11;
54869;PMS5003;40756;-37.950;145.008;2022-10-22T12:38:11;11;11;
54869;PMS5003;40756;-37.950;145.008;2022-10-22T12:40:43;11;11;
54869;PMS5003;40756;-37.950;145.008;2022-10-22T12:43:14;8;8;
54869;PMS5003;40756;-37.950;145.008;2022-10-22T12:45:45;10;9;
54869;PMS5003;40756;-37.950;145.008;2022-10-22T12:48:18;12;12;
54869;PMS5003;40756;-37.950;145.008;2022-10-22T12:50:50;11;11;
54869;PMS5003;40756;-37.950;145.008;2022-10-22T12:53:23;12;12;
54869;PMS5003;40756;-37.950;145.008;2022-10-22T12:55:54;13;12;
54869;PMS5003;40756;-37.950;145.008;2022-10-22T12:58:28;11;11;
54869;PMS5003;40756;-37.950;145.008;2022-10-22T13:01:01;14;12;
54869;PMS5003;40756;-37.950;145.008;2022-10-22T13:03:32;10;10;
54869;PMS5003;40756;-37.950;145.008;2022-10-22T13:06:35;13;10;
54869;PMS5003;40756;-37.950;145.008;2022-10-22T13:09:13;16;14;
54869;PMS5003;40756;-37.950;145.008;2022-10-22T13:11:49;12;12;
54869;PMS5003;40756;-37.950;145.008;2022-10-22T13:14:25;14;12;
54869;PMS5003;40756;-37.950;145.008;2022-10-22T13:17:06;11;10;
54869;PMS5003;40756;-37.950;145.008;2022-10-22T13:19:39;11;11;
54869;PMS5003;40756;-37.950;145.008;2022-10-22T13:22:28;9;9;
54869;PMS5003;40756;-37.950;145.008;2022-10-22T13:25:03;12;11;
54869;PMS5003;40756;-37.950;145.008;2022-10-22T13:27:47;10;10;
54869;PMS5003;40756;-37.950;145.008;2022-10-22T13:30:21;11;9;
54869;PMS5003;40756;-37.950;145.008;2022-10-22T13:32:53;11;10;
54869;PMS5003;40756;-37.950;145.008;2022-10-22T13:35:24;10;10;
54869;PMS5003;40756;-37.950;145.008;2022-10-22T13:37:57;11;10;
54869;PMS5003;40756;-37.950;145.008;2022-10-22T13:40:27;12;12;
54869;PMS5003;40756;-37.950;145.008;2022-10-22T13:42:57;11;10;
54869;PMS5003;40756;-37.950;145.008;2022-10-22T13:45:26;12;12;
54869;PMS5003;40756;-37.950;145.008;2022-10-22T13:47:55;14;12;
54869;PMS5003;40756;-37.950;145.008;2022-10-22T13:50:25;12;12;
54869;PMS5003;40756;-37.950;145.008;2022-10-22T13:52:55;14;14;
54869;PMS5003;40756;-37.950;145.008;2022-10-22T13:55:26;10;9;
54869;PMS5003;40756;-37.950;145.008;2022-10-22T13:57:58;13;13;
54869;PMS5003;40756;-37.950;145.008;2022-10-22T14:00:33;10;10;
54869;PMS5003;40756;-37.950;145.008;2022-10-22T14:03:04;14;13;
54869;PMS5003;40756;-37.950;145.008;2022-10-22T14:05:36;15;13;
54869;PMS5003;40756;-37.950;145.008;2022-10-22T14:08:08;14;13;
54869;PMS5003;40756;-37.950;145.008;2022-10-22T14:10:39;10;10;
54869;PMS5003;40756;-37.950;145.008;2022-10-22T14:13:09;11;10;
54869;PMS5003;40756;-37.950;145.008;2022-10-22T14:15:39;9;9;
54869;PMS5003;40756;-37.950;145.008;2022-10-22T14:18:11;14;12;
54869;PMS5003;40756;-37.950;145.008;2022-10-22T14:20:46;12;11;
54869;PMS5003;40756;-37.950;145.008;2022-10-22T14:23:18;12;12;
54869;PMS5003;40756;-37.950;145.008;2022-10-22T14:25:50;11;11;
54869;PMS5003;40756;-37.950;145.008;2022-10-22T14:28:20;15;13;
54869;PMS5003;40756;-37.950;145.008;2022-10-22T14:30:49;11;10;
54869;PMS5003;40756;-37.950;145.008;2022-10-22T14:33:20;12;12;
54869;PMS5003;40756;-37.950;145.008;2022-10-22T14:35:53;10;9;
54869;PMS5003;40756;-37.950;145.008;2022-10-22T14:38:23;12;10;
54869;PMS5003;40756;-37.950;145.008;2022-10-22T14:40:53;12;12;
54869;PMS5003;40756;-37.950;145.008;2022-10-22T14:43:24;13;11;
54869;PMS5003;40756;-37.950;145.008;2022-10-22T14:45:54;12;11;
54869;PMS5003;40756;-37.950;145.008;2022-10-22T14:48:24;13;12;
54869;PMS5003;40756;-37.950;145.008;2022-10-22T14:50:53;9;9;
54869;PMS5003;40756;-37.950;145.008;2022-10-22T14:53:23;10;10;
54869;PMS5003;40756;-37.950;145.008;2022-10-22T14:55:52;8;8;
54869;PMS5003;40756;-37.950;145.008;2022-10-22T14:58:23;9;8;
54869;PMS5003;40756;-37.950;145.008;2022-10-22T15:00:52;11;11;
54869;PMS5003;40756;-37.950;145.008;2022-10-22T15:03:22;12;9;
54869;PMS5003;40756;-37.950;145.008;2022-10-22T15:05:51;9;8;
54869;PMS5003;40756;-37.950;145.008;2022-10-22T15:08:21;8;8;
54869;PMS5003;40756;-37.950;145.008;2022-10-22T15:11:00;8;7;
54869;PMS5003;40756;-37.950;145.008;2022-10-22T15:13:32;9;9;
54869;PMS5003;40756;-37.950;145.008;2022-10-22T15:16:04;7;7;
54869;PMS5003;40756;-37.950;145.008;2022-10-22T15:18:34;8;8;
54869;PMS5003;40756;-37.950;145.008;2022-10-22T15:21:05;9;8;
54869;PMS5003;40756;-37.950;145.008;2022-10-22T15:23:40;7;6;
54869;PMS5003;40756;-37.950;145.008;2022-10-22T15:26:10;9;7;
54869;PMS5003;40756;-37.950;145.008;2022-10-22T15:28:41;9;8;
54869;PMS5003;40756;-37.950;145.008;2022-10-22T15:31:11;8;8;
54869;PMS5003;40756;-37.950;145.008;2022-10-22T15:33:41;7;7;
54869;PMS5003;40756;-37.950;145.008;2022-10-22T15:36:12;8;7;
54869;PMS5003;40756;-37.950;145.008;2022-10-22T15:38:43;8;8;
54869;PMS5003;40756;-37.950;145.008;2022-10-22T15:41:13;10;9;
54869;PMS5003;40756;-37.950;145.008;2022-10-22T15:43:42;8;8;
54869;PMS5003;40756;-37.950;145.008;2022-10-22T15:46:13;7;7;
54869;PMS5003;40756;-37.950;145.008;2022-10-22T15:48:44;7;6;
54869;PMS5003;40756;-37.950;145.008;2022-10-22T15:51:14;6;6;
54869;PMS5003;40756;-37.950;145.008;2022-10-22T15:53:46;7;7;
54869;PMS5003;40756;-37.950;145.008;2022-10-22T15:56:19;7;6;
54869;PMS5003;40756;-37.950;145.008;2022-10-22T15:58:52;11;9;
54869;PMS5003;40756;-37.950;145.008;2022-10-22T16:03:09;5;5;
54869;PMS5003;40756;-37.950;145.008;2022-10-22T16:05:38;8;8;
54869;PMS5003;40756;-37.950;145.008;2022-10-22T16:08:08;8;7;
54869;PMS5003;40756;-37.950;145.008;2022-10-22T16:10:38;8;8;
54869;PMS5003;40756;-37.950;145.008;2022-10-22T16:13:12;10;9;
54869;PMS5003;40756;-37.950;145.008;2022-10-22T16:15:42;8;8;
54869;PMS5003;40756;-37.950;145.008;2022-10-22T16:18:11;6;6;
54869;PMS5003;40756;-37.950;145.008;2022-10-22T16:20:41;6;6;
54869;PMS5003;40756;-37.950;145.008;2022-10-22T16:23:11;8;8;
54869;PMS5003;40756;-37.950;145.008;2022-10-22T16:25:41;7;6;
54869;PMS5003;40756;-37.950;145.008;2022-10-22T16:28:11;8;7;
54869;PMS5003;40756;-37.950;145.008;2022-10-22T16:30:40;5;5;